CheckWX is a tool to help pilots better visualize weather data.  It is not intended as a substitute for an official pre-flight weather briefing.

13:43:25 UTC

FYWW METAR
Windhoek, Town MET Airport
Windhoek, Namibia
Current

43 mins ago

FYWW 201300Z AUTO 27003KT //// // ////// 25/M12 Q1026
Observed
Jul-20 @ 13:00 UTC
Wind
  • 270° at 3 KTS
Visibility
Temperature
25°C / 77°F
Dewpoint
-12°C / 10°F
Humidity
8%
Altimeter
30.3" Hg
Pressure
1025.92 hPa
Previous

2 hours ago

FYWW 201200Z AUTO 28003KT //// // ////// 24/M11 Q1026
Observed
Jul-20 @ 12:00 UTC
Wind
  • 280° at 3 KTS
Visibility
Temperature
24°C / 75°F
Dewpoint
-11°C / 12°F
Humidity
9%
Altimeter
30.3" Hg
Pressure
1025.92 hPa
Previous

3 hours ago

FYWW 201100Z AUTO 32003KT //// // ////// 24/M10 Q1027
Observed
Jul-20 @ 11:00 UTC
Wind
  • 320° at 3 KTS
Visibility
Temperature
24°C / 75°F
Dewpoint
-10°C / 14°F
Humidity
10%
Altimeter
30.32" Hg
Pressure
1026.92 hPa